createdAt,value
2019-04-16T09:36:59.303Z,3.90
2019-04-16T09:42:03.054Z,4.85
2019-04-16T09:47:06.803Z,5.63
2019-04-16T09:52:10.480Z,6.50
2019-04-16T09:57:14.949Z,7.20
2019-04-16T10:02:21.918Z,6.47
2019-04-16T10:07:26.162Z,5.83
2019-04-16T10:12:29.908Z,5.97
2019-04-16T10:17:33.768Z,6.23
2019-04-16T10:22:37.439Z,6.60
2019-04-16T10:27:57.277Z,7.00
2019-04-16T10:33:01.208Z,7.00
2019-04-16T10:38:18.767Z,5.20
2019-04-16T10:43:44.815Z,4.80
2019-04-16T10:49:08.690Z,5.00
2019-04-16T10:54:16.821Z,4.87
2019-04-16T10:59:38.228Z,4.50
2019-04-16T11:05:10.281Z,4.83
2019-04-16T11:10:15.432Z,4.93
2019-04-16T11:15:21.606Z,5.30
2019-04-16T11:20:25.817Z,5.13
2019-04-16T11:25:29.546Z,5.20
2019-04-16T11:30:43.864Z,5.60
2019-04-16T11:35:52.787Z,6.10
2019-04-16T11:40:53.034Z,6.23
2019-04-16T11:45:56.751Z,6.77
2019-04-16T11:51:00.498Z,6.90
2019-04-16T11:56:04.654Z,7.17
2019-04-16T12:01:26.431Z,7.43
2019-04-16T12:06:39.271Z,6.77
2019-04-16T12:11:51.574Z,7.83
2019-04-16T12:17:10.559Z,7.53
2019-04-16T12:22:39.815Z,6.93
2019-04-16T12:28:11.438Z,7.50
2019-04-16T12:33:29.420Z,7.23
2019-04-16T12:39:04.277Z,6.93
2019-04-16T12:44:44.556Z,7.20
2019-04-16T12:49:56.531Z,8.03
2019-04-16T12:55:18.516Z,6.97
2019-04-16T13:00:41.670Z,6.23
2019-04-16T13:06:02.442Z,6.47
2019-04-16T13:11:14.679Z,5.80
2019-04-16T13:16:22.086Z,5.50
2019-04-16T13:21:32.681Z,5.43
2019-04-16T13:26:39.726Z,5.73
2019-04-16T13:31:43.434Z,5.70
2019-04-16T13:36:47.137Z,15.07
2019-04-16T13:41:51.062Z,6.13
2019-04-16T13:46:54.992Z,5.37
2019-04-16T13:51:58.675Z,5.20
2019-04-16T13:57:14.891Z,6.47
2019-04-16T14:02:26.976Z,6.50
2019-04-16T14:07:30.657Z,6.33
2019-04-16T14:12:42.332Z,6.40
2019-04-16T14:17:51.772Z,6.27
2019-04-16T14:22:45.417Z,6.20
2019-04-16T14:27:49.109Z,6.43
2019-04-16T14:32:52.775Z,5.87
2019-04-16T14:37:56.518Z,6.53
2019-04-16T14:43:03.443Z,6.90
2019-04-16T14:48:10.172Z,7.50
2019-04-16T14:53:20.225Z,6.57
2019-04-16T14:58:31.613Z,6.93
2019-04-16T15:03:50.003Z,7.87
2019-04-16T15:09:18.442Z,7.73
2019-04-16T15:14:29.873Z,7.60
2019-04-16T15:19:37.193Z,6.97
2019-04-16T15:25:00.085Z,6.73
2019-04-16T15:30:38.829Z,7.10
2019-04-16T15:35:47.748Z,7.10
2019-04-16T15:40:53.306Z,7.77
2019-04-16T15:46:26.406Z,6.47
2019-04-16T15:51:50.615Z,7.00
2019-04-16T15:56:59.974Z,7.13
2019-04-16T16:02:14.561Z,7.57
2019-04-16T16:07:25.227Z,8.17
2019-04-16T16:12:30.697Z,8.30
2019-04-16T16:17:35.072Z,8.03
2019-04-16T16:22:38.886Z,8.27
2019-04-16T16:27:46.817Z,8.00
2019-04-16T16:32:48.021Z,7.80
2019-04-16T16:37:51.826Z,8.43
2019-04-16T16:42:55.573Z,8.77
2019-04-16T16:47:59.342Z,8.60
2019-04-16T16:53:12.571Z,8.80
2019-04-16T16:58:41.201Z,8.93
2019-04-16T17:04:10.382Z,9.03
2019-04-16T17:09:32.392Z,8.17
2019-04-16T17:14:37.836Z,8.30
2019-04-16T17:19:41.635Z,8.40
2019-04-16T17:24:45.037Z,9.23
2019-04-16T17:29:49.707Z,8.80
2019-04-16T17:34:54.424Z,8.70
2019-04-16T17:40:04.705Z,8.43
2019-04-16T17:45:42.829Z,9.07
2019-04-16T17:51:21.217Z,9.80
2019-04-16T18:00:47.043Z,9.55
2019-04-16T18:06:09.643Z,9.70
2019-04-16T18:11:33.388Z,10.20
2019-04-16T18:16:54.116Z,10.03
2019-04-16T18:22:23.498Z,9.17
2019-04-16T18:27:36.507Z,9.13
2019-04-16T18:33:07.798Z,9.10
2019-04-16T18:38:37.365Z,8.53
2019-04-16T18:44:07.005Z,8.27
2019-04-16T18:49:17.438Z,8.07
2019-04-16T18:54:20.860Z,8.77
2019-04-16T18:59:25.724Z,9.17
2019-04-16T19:04:30.414Z,9.20
2019-04-16T19:09:34.958Z,8.63
2019-04-16T19:14:39.501Z,7.80
2019-04-16T19:19:45.501Z,8.00
2019-04-16T19:24:50.293Z,8.67
2019-04-16T19:29:54.910Z,8.07
2019-04-16T19:35:08.918Z,8.67
2019-04-16T19:40:06.913Z,9.13
2019-04-16T19:45:12.803Z,9.10
2019-04-16T19:50:17.396Z,10.10
2019-04-16T19:55:22.058Z,8.20
2019-04-16T20:00:26.901Z,8.73
2019-04-16T20:05:31.761Z,9.50
2019-04-16T20:10:37.226Z,8.47
2019-04-16T20:15:43.662Z,8.93
2019-04-16T20:20:50.146Z,8.53
2019-04-16T20:25:56.347Z,8.73
2019-04-16T20:31:04.300Z,8.40
2019-04-16T20:36:08.894Z,8.17
2019-04-16T20:41:18.178Z,8.10
2019-04-16T20:46:20.340Z,8.30
2019-04-16T20:51:26.610Z,7.70
2019-04-16T20:56:40.538Z,8.13
2019-04-16T21:01:44.040Z,7.93
2019-04-16T21:06:48.786Z,8.70
2019-04-16T21:11:53.850Z,9.03
2019-04-16T21:16:58.581Z,9.10
2019-04-16T21:22:03.758Z,8.13
2019-04-16T21:27:10.622Z,8.40
2019-04-16T21:32:34.370Z,8.23
2019-04-16T21:38:05.641Z,8.40
2019-04-16T21:43:10.210Z,8.03
2019-04-16T21:48:14.759Z,7.97
2019-04-16T21:53:19.385Z,7.47
2019-04-16T21:58:24.007Z,7.70
2019-04-16T22:03:29.573Z,8.70
2019-04-16T22:08:34.122Z,7.87
2019-04-16T22:13:38.669Z,8.20
2019-04-16T22:18:43.201Z,7.60
2019-04-16T22:23:50.375Z,8.47
2019-04-16T22:28:55.196Z,7.30
2019-04-16T22:33:59.509Z,7.63
2019-04-16T22:39:12.765Z,7.97
2019-04-16T22:44:32.017Z,8.07
2019-04-16T22:49:36.566Z,8.60
2019-04-16T22:54:41.124Z,9.07
2019-04-16T22:59:45.665Z,9.10
2019-04-16T23:04:50.209Z,7.37
2019-04-16T23:09:54.755Z,7.57
2019-04-16T23:14:59.302Z,7.60
2019-04-16T23:20:04.333Z,7.67
2019-04-16T23:25:09.262Z,8.43
2019-04-16T23:30:15.707Z,7.90
2019-04-16T23:35:20.197Z,8.20
2019-04-16T23:40:24.742Z,6.20
2019-04-16T23:45:52.687Z,7.80
2019-04-16T23:51:02.902Z,6.90
2019-04-16T23:56:20.624Z,7.60
